Terminal Aerodrome Forecast
Issued by NWS Cleveland, OH

Home | Current Version | Previous Version | Graphics & Text | Print | Product List | Glossary On
Versions: 1 2 3 4 5 6 7 8 9 10 11 12 13 14
891
FTUS41 KCLE 160523
TAFCAK
TAF
KCAK 160523Z 1606/1706 32009KT P6SM OVC035
     FM161800 32010KT P6SM SCT045
     FM170200 20003KT P6SM SCT060=

USA.gov is the U.S. government's official web portal to all federal, state and local government web resources and services.